sensor_id;sensor_type;location;lat;lon;timestamp;pressure;altitude;pressure_sealevel;temperature;humidity
74895;BME280;63447;49.446;8.666;2023-03-23T00:01:44;99754.44;;;14.31;52.70
74895;BME280;63447;49.446;8.666;2023-03-23T00:04:09;99751.28;;;14.33;52.46
74895;BME280;63447;49.446;8.666;2023-03-23T00:06:39;99748.88;;;14.31;52.67
74895;BME280;63447;49.446;8.666;2023-03-23T00:09:05;99744.47;;;14.26;52.64
74895;BME280;63447;49.446;8.666;2023-03-23T00:11:32;99748.47;;;14.29;52.00
74895;BME280;63447;49.446;8.666;2023-03-23T00:13:59;99748.94;;;14.35;51.75
74895;BME280;63447;49.446;8.666;2023-03-23T00:16:32;99748.06;;;14.31;52.04
74895;BME280;63447;49.446;8.666;2023-03-23T00:19:00;99744.13;;;14.32;52.38
74895;BME280;63447;49.446;8.666;2023-03-23T00:21:29;99733.81;;;14.32;51.99
74895;BME280;63447;49.446;8.666;2023-03-23T00:24:05;99731.47;;;14.34;51.94
74895;BME280;63447;49.446;8.666;2023-03-23T00:26:32;99723.16;;;14.34;51.67
74895;BME280;63447;49.446;8.666;2023-03-23T00:29:00;99721.56;;;14.33;51.59
74895;BME280;63447;49.446;8.666;2023-03-23T00:31:28;99727.97;;;14.37;51.43
74895;BME280;63447;49.446;8.666;2023-03-23T00:34:03;99722.78;;;14.36;51.58
74895;BME280;63447;49.446;8.666;2023-03-23T00:36:31;99722.78;;;14.36;51.83
74895;BME280;63447;49.446;8.666;2023-03-23T00:38:57;99720.44;;;14.38;51.19
74895;BME280;63447;49.446;8.666;2023-03-23T00:41:28;99716.00;;;14.33;51.78
74895;BME280;63447;49.446;8.666;2023-03-23T00:43:55;99710.38;;;14.26;51.87
74895;BME280;63447;49.446;8.666;2023-03-23T00:46:22;99723.66;;;14.40;51.47
74895;BME280;63447;49.446;8.666;2023-03-23T00:48:48;99708.97;;;14.39;51.33
74895;BME280;63447;49.446;8.666;2023-03-23T00:51:13;99713.66;;;14.35;51.63
74895;BME280;63447;49.446;8.666;2023-03-23T00:53:41;99715.63;;;14.35;51.85
74895;BME280;63447;49.446;8.666;2023-03-23T00:56:07;99722.78;;;14.36;51.72
74895;BME280;63447;49.446;8.666;2023-03-23T00:58:36;99715.25;;;14.36;51.56
74895;BME280;63447;49.446;8.666;2023-03-23T01:01:06;99711.59;;;14.29;51.84
74895;BME280;63447;49.446;8.666;2023-03-23T01:03:32;99722.72;;;14.32;51.54
74895;BME280;63447;49.446;8.666;2023-03-23T01:06:04;99709.94;;;14.24;51.87
74895;BME280;63447;49.446;8.666;2023-03-23T01:08:29;99722.28;;;14.30;51.92
74895;BME280;63447;49.446;8.666;2023-03-23T01:11:05;99724.66;;;14.28;51.63
74895;BME280;63447;49.446;8.666;2023-03-23T01:13:31;99699.16;;;14.19;51.71
74895;BME280;63447;49.446;8.666;2023-03-23T01:15:57;99708.34;;;14.23;52.01
74895;BME280;63447;49.446;8.666;2023-03-23T01:18:22;99708.41;;;14.30;52.03
74895;BME280;63447;49.446;8.666;2023-03-23T01:20:47;99692.44;;;14.20;51.86
74895;BME280;63447;49.446;8.666;2023-03-23T01:23:12;99689.09;;;14.11;51.71
74895;BME280;63447;49.446;8.666;2023-03-23T01:25:38;99696.25;;;14.12;52.37
74895;BME280;63447;49.446;8.666;2023-03-23T01:28:03;99701.50;;;14.17;51.93
74895;BME280;63447;49.446;8.666;2023-03-23T01:30:29;99693.91;;;14.14;52.45
74895;BME280;63447;49.446;8.666;2023-03-23T01:32:56;99687.19;;;14.15;52.10
74895;BME280;63447;49.446;8.666;2023-03-23T01:35:26;99686.75;;;14.13;52.31
74895;BME280;63447;49.446;8.666;2023-03-23T01:37:54;99685.16;;;14.12;52.46
74895;BME280;63447;49.446;8.666;2023-03-23T01:40:22;99648.41;;;13.92;52.17
74895;BME280;63447;49.446;8.666;2023-03-23T01:42:47;99679.19;;;14.10;52.51
74895;BME280;63447;49.446;8.666;2023-03-23T01:45:51;99679.19;;;14.10;52.17
74895;BME280;63447;49.446;8.666;2023-03-23T01:51:04;99677.69;;;14.16;51.97
74895;BME280;63447;49.446;8.666;2023-03-23T01:53:38;99660.19;;;14.12;51.87
74895;BME280;63447;49.446;8.666;2023-03-23T01:56:09;99664.63;;;14.16;51.53
74895;BME280;63447;49.446;8.666;2023-03-23T01:58:37;99646.56;;;14.03;51.83
74895;BME280;63447;49.446;8.666;2023-03-23T02:01:10;99654.75;;;14.19;51.69
74895;BME280;63447;49.446;8.666;2023-03-23T02:03:38;99653.91;;;14.15;51.85
74895;BME280;63447;49.446;8.666;2023-03-23T02:06:04;99647.91;;;14.13;51.82
74895;BME280;63447;49.446;8.666;2023-03-23T02:08:31;99642.38;;;14.13;51.84
74895;BME280;63447;49.446;8.666;2023-03-23T02:10:57;99636.03;;;14.12;51.66
74895;BME280;63447;49.446;8.666;2023-03-23T02:13:23;99623.81;;;14.17;51.50
74895;BME280;63447;49.446;8.666;2023-03-23T02:21:09;99620.41;;;14.27;50.86
74895;BME280;63447;49.446;8.666;2023-03-23T02:29:21;99629.91;;;14.30;50.81
74895;BME280;63447;49.446;8.666;2023-03-23T02:34:41;99641.44;;;14.28;51.24
74895;BME280;63447;49.446;8.666;2023-03-23T02:37:21;99649.78;;;14.32;51.25
74895;BME280;63447;49.446;8.666;2023-03-23T02:39:53;99639.47;;;14.32;51.15
74895;BME280;63447;49.446;8.666;2023-03-23T02:42:25;99634.72;;;14.33;51.14
74895;BME280;63447;49.446;8.666;2023-03-23T02:44:54;99622.00;;;14.28;50.87
74895;BME280;63447;49.446;8.666;2023-03-23T02:47:25;99627.19;;;14.33;51.01
74895;BME280;63447;49.446;8.666;2023-03-23T02:49:54;99612.56;;;14.36;50.82
74895;BME280;63447;49.446;8.666;2023-03-23T02:52:27;99612.94;;;14.35;51.17
74895;BME280;63447;49.446;8.666;2023-03-23T02:54:56;99603.31;;;14.25;52.18
74895;BME280;63447;49.446;8.666;2023-03-23T02:57:25;99598.09;;;14.20;51.56
74895;BME280;63447;49.446;8.666;2023-03-23T02:59:52;99600.75;;;14.13;51.90
74895;BME280;63447;49.446;8.666;2023-03-23T03:02:19;99600.44;;;14.18;51.94
74895;BME280;63447;49.446;8.666;2023-03-23T03:14:11;99606.00;;;14.18;52.00
74895;BME280;63447;49.446;8.666;2023-03-23T03:16:46;99607.16;;;14.17;51.52
74895;BME280;63447;49.446;8.666;2023-03-23T03:19:17;99603.22;;;14.18;51.82
74895;BME280;63447;49.446;8.666;2023-03-23T03:21:46;99617.09;;;14.18;51.54
74895;BME280;63447;49.446;8.666;2023-03-23T03:24:15;99606.91;;;14.25;51.49
74895;BME280;63447;49.446;8.666;2023-03-23T03:26:45;99597.97;;;14.13;51.95
74895;BME280;63447;49.446;8.666;2023-03-23T03:29:13;99585.16;;;14.01;52.49
74895;BME280;63447;49.446;8.666;2023-03-23T03:31:44;99603.47;;;14.09;52.21
74895;BME280;63447;49.446;8.666;2023-03-23T03:34:10;99613.44;;;14.14;52.15
74895;BME280;63447;49.446;8.666;2023-03-23T03:36:36;99594.66;;;14.04;52.29
74895;BME280;63447;49.446;8.666;2023-03-23T03:39:07;99606.00;;;14.18;52.28
74895;BME280;63447;49.446;8.666;2023-03-23T03:41:35;99607.47;;;14.12;52.23
74895;BME280;63447;49.446;8.666;2023-03-23T03:44:01;99590.22;;;13.96;52.31
74895;BME280;63447;49.446;8.666;2023-03-23T03:46:27;99616.47;;;14.32;51.59
74895;BME280;63447;49.446;8.666;2023-03-23T03:48:55;99617.19;;;14.25;52.02
74895;BME280;63447;49.446;8.666;2023-03-23T03:51:22;99615.09;;;14.18;52.15
74895;BME280;63447;49.446;8.666;2023-03-23T03:53:47;99610.00;;;14.20;51.96
74895;BME280;63447;49.446;8.666;2023-03-23T03:56:14;99597.19;;;14.12;52.73
74895;BME280;63447;49.446;8.666;2023-03-23T03:58:41;99605.44;;;14.09;53.09
74895;BME280;63447;49.446;8.666;2023-03-23T04:01:10;99605.88;;;14.11;53.04
74895;BME280;63447;49.446;8.666;2023-03-23T04:03:38;99604.38;;;14.17;52.62
74895;BME280;63447;49.446;8.666;2023-03-23T04:06:04;99604.19;;;14.03;53.07
74895;BME280;63447;49.446;8.666;2023-03-23T04:08:30;99606.97;;;14.03;53.36
74895;BME280;63447;49.446;8.666;2023-03-23T04:10:56;99607.34;;;14.01;53.75
74895;BME280;63447;49.446;8.666;2023-03-23T04:13:22;99616.84;;;14.00;53.88
74895;BME280;63447;49.446;8.666;2023-03-23T04:15:51;99614.38;;;13.95;53.99
74895;BME280;63447;49.446;8.666;2023-03-23T04:18:17;99616.13;;;14.07;53.83
74895;BME280;63447;49.446;8.666;2023-03-23T04:20:44;99619.56;;;13.97;54.15
74895;BME280;63447;49.446;8.666;2023-03-23T04:23:12;99620.72;;;13.96;54.39
74895;BME280;63447;49.446;8.666;2023-03-23T04:25:38;99633.00;;;13.95;54.28
74895;BME280;63447;49.446;8.666;2023-03-23T04:28:05;99617.81;;;13.88;54.02
74895;BME280;63447;49.446;8.666;2023-03-23T04:30:33;99636.63;;;13.99;54.04
74895;BME280;63447;49.446;8.666;2023-03-23T04:33:00;99639.03;;;14.00;54.28
74895;BME280;63447;49.446;8.666;2023-03-23T04:35:32;99634.72;;;14.03;54.46
74895;BME280;63447;49.446;8.666;2023-03-23T04:37:57;99620.06;;;13.79;55.70
74895;BME280;63447;49.446;8.666;2023-03-23T04:40:25;99633.41;;;13.97;55.57
74895;BME280;63447;49.446;8.666;2023-03-23T04:42:53;99633.50;;;14.04;56.44
74895;BME280;63447;49.446;8.666;2023-03-23T04:45:22;99639.47;;;13.79;57.94
74895;BME280;63447;49.446;8.666;2023-03-23T04:47:53;99636.22;;;13.74;57.26
74895;BME280;63447;49.446;8.666;2023-03-23T04:50:24;99627.59;;;13.56;58.83
74895;BME280;63447;49.446;8.666;2023-03-23T04:52:50;99646.75;;;13.65;58.59
74895;BME280;63447;49.446;8.666;2023-03-23T04:55:17;99638.00;;;13.63;58.94
74895;BME280;63447;49.446;8.666;2023-03-23T04:57:46;99654.09;;;13.76;58.94
74895;BME280;63447;49.446;8.666;2023-03-23T05:00:15;99657.97;;;13.49;60.96
74895;BME280;63447;49.446;8.666;2023-03-23T05:02:42;99659.81;;;13.41;60.94
74895;BME280;63447;49.446;8.666;2023-03-23T05:05:10;99652.03;;;13.28;62.96
74895;BME280;63447;49.446;8.666;2023-03-23T05:07:39;99632.94;;;13.03;64.36
74895;BME280;63447;49.446;8.666;2023-03-23T05:10:05;99655.81;;;13.00;63.78
74895;BME280;63447;49.446;8.666;2023-03-23T05:12:33;99664.34;;;13.11;62.52
74895;BME280;63447;49.446;8.666;2023-03-23T05:14:58;99677.38;;;13.30;62.08
74895;BME280;63447;49.446;8.666;2023-03-23T05:17:24;99654.25;;;13.18;62.20
74895;BME280;63447;49.446;8.666;2023-03-23T05:19:50;99675.34;;;13.46;61.40
74895;BME280;63447;49.446;8.666;2023-03-23T05:22:16;99674.69;;;13.33;62.89
74895;BME280;63447;49.446;8.666;2023-03-23T05:24:42;99658.19;;;13.17;62.53
74895;BME280;63447;49.446;8.666;2023-03-23T05:27:10;99669.22;;;13.37;61.11
74895;BME280;63447;49.446;8.666;2023-03-23T05:29:38;99664.03;;;13.35;60.87
74895;BME280;63447;49.446;8.666;2023-03-23T05:32:07;99674.59;;;13.49;60.85
74895;BME280;63447;49.446;8.666;2023-03-23T05:34:36;99657.97;;;13.49;60.42
74895;BME280;63447;49.446;8.666;2023-03-23T05:37:04;99672.50;;;13.65;60.06
74895;BME280;63447;49.446;8.666;2023-03-23T05:39:30;99656.91;;;13.57;60.06
74895;BME280;63447;49.446;8.666;2023-03-23T05:41:56;99634.06;;;13.41;60.41
74895;BME280;63447;49.446;8.666;2023-03-23T05:44:22;99673.97;;;13.59;60.80
74895;BME280;63447;49.446;8.666;2023-03-23T05:46:47;99662.94;;;13.40;61.61
74895;BME280;63447;49.446;8.666;2023-03-23T05:49:14;99667.75;;;13.43;61.24
74895;BME280;63447;49.446;8.666;2023-03-23T05:51:41;99666.66;;;13.47;60.95
74895;BME280;63447;49.446;8.666;2023-03-23T05:54:11;99667.47;;;13.48;61.36
74895;BME280;63447;49.446;8.666;2023-03-23T05:56:39;99661.84;;;13.44;61.46
74895;BME280;63447;49.446;8.666;2023-03-23T05:59:05;99666.59;;;13.44;63.04
74895;BME280;63447;49.446;8.666;2023-03-23T06:01:30;99654.44;;;13.29;63.15
74895;BME280;63447;49.446;8.666;2023-03-23T06:03:57;99663.97;;;13.32;62.68
74895;BME280;63447;49.446;8.666;2023-03-23T06:06:24;99652.53;;;13.14;63.32
74895;BME280;63447;49.446;8.666;2023-03-23T06:08:49;99670.50;;;13.20;63.77
74895;BME280;63447;49.446;8.666;2023-03-23T06:11:15;99687.91;;;13.20;63.72
74895;BME280;63447;49.446;8.666;2023-03-23T06:13:43;99690.38;;;13.25;63.61
74895;BME280;63447;49.446;8.666;2023-03-23T06:16:09;99687.38;;;13.15;63.51
74895;BME280;63447;49.446;8.666;2023-03-23T06:18:35;99695.88;;;13.22;63.90
74895;BME280;63447;49.446;8.666;2023-03-23T06:21:06;99684.72;;;13.18;63.11
74895;BME280;63447;49.446;8.666;2023-03-23T06:23:31;99698.31;;;13.27;63.21
74895;BME280;63447;49.446;8.666;2023-03-23T06:26:00;99692.28;;;13.21;62.89
74895;BME280;63447;49.446;8.666;2023-03-23T06:28:26;99684.53;;;13.11;63.43
74895;BME280;63447;49.446;8.666;2023-03-23T06:30:52;99676.16;;;13.08;63.14
74895;BME280;63447;49.446;8.666;2023-03-23T06:33:17;99693.03;;;13.18;62.89
74895;BME280;63447;49.446;8.666;2023-03-23T06:35:43;99698.09;;;13.36;63.02
74895;BME280;63447;49.446;8.666;2023-03-23T06:38:10;99698.03;;;13.32;62.81
74895;BME280;63447;49.446;8.666;2023-03-23T06:40:40;99688.09;;;13.31;61.66
74895;BME280;63447;49.446;8.666;2023-03-23T06:43:06;99682.06;;;13.25;62.64
74895;BME280;63447;49.446;8.666;2023-03-23T06:45:32;99692.47;;;13.32;62.36
74895;BME280;63447;49.446;8.666;2023-03-23T06:47:58;99698.25;;;13.43;61.17
74895;BME280;63447;49.446;8.666;2023-03-23T06:50:23;99697.06;;;13.44;61.11
74895;BME280;63447;49.446;8.666;2023-03-23T06:52:49;99688.63;;;13.37;61.69
74895;BME280;63447;49.446;8.666;2023-03-23T06:55:16;99707.91;;;13.52;60.99
74895;BME280;63447;49.446;8.666;2023-03-23T06:57:42;99697.25;;;13.54;60.34
74895;BME280;63447;49.446;8.666;2023-03-23T07:00:09;99729.91;;;13.65;60.62
74895;BME280;63447;49.446;8.666;2023-03-23T07:02:41;99715.38;;;13.71;59.82
74895;BME280;63447;49.446;8.666;2023-03-23T07:05:09;99718.41;;;13.63;60.89
74895;BME280;63447;49.446;8.666;2023-03-23T07:07:36;99719.41;;;13.74;60.51
74895;BME280;63447;49.446;8.666;2023-03-23T07:10:06;99719.03;;;13.75;59.99
74895;BME280;63447;49.446;8.666;2023-03-23T07:12:33;99736.78;;;13.71;61.06
74895;BME280;63447;49.446;8.666;2023-03-23T07:15:02;99719.06;;;13.56;61.00
74895;BME280;63447;49.446;8.666;2023-03-23T07:17:27;99746.41;;;13.77;61.39
74895;BME280;63447;49.446;8.666;2023-03-23T07:19:53;99762.09;;;13.69;62.39
74895;BME280;63447;49.446;8.666;2023-03-23T07:22:19;99768.19;;;13.78;62.16
74895;BME280;63447;49.446;8.666;2023-03-23T07:24:47;99754.00;;;13.61;62.98
74895;BME280;63447;49.446;8.666;2023-03-23T07:27:12;99772.91;;;13.78;62.36
74895;BME280;63447;49.446;8.666;2023-03-23T07:29:38;99773.44;;;13.83;62.16
74895;BME280;63447;49.446;8.666;2023-03-23T07:32:10;99771.75;;;13.79;62.92
74895;BME280;63447;49.446;8.666;2023-03-23T07:34:37;99762.97;;;13.73;62.15
74895;BME280;63447;49.446;8.666;2023-03-23T07:37:05;99780.44;;;13.77;62.38
74895;BME280;63447;49.446;8.666;2023-03-23T07:39:31;99781.06;;;13.67;63.06
74895;BME280;63447;49.446;8.666;2023-03-23T07:41:59;99740.69;;;13.47;62.79
74895;BME280;63447;49.446;8.666;2023-03-23T07:44:25;99765.53;;;13.63;63.21
74895;BME280;63447;49.446;8.666;2023-03-23T07:46:53;99786.66;;;13.71;63.36
74895;BME280;63447;49.446;8.666;2023-03-23T07:49:18;99767.72;;;13.53;63.38
74895;BME280;63447;49.446;8.666;2023-03-23T07:51:49;99780.09;;;13.59;63.50
74895;BME280;63447;49.446;8.666;2023-03-23T07:54:16;99794.47;;;13.65;64.16
74895;BME280;63447;49.446;8.666;2023-03-23T07:56:42;99798.06;;;13.66;63.63
74895;BME280;63447;49.446;8.666;2023-03-23T07:59:08;99805.22;;;13.67;63.84
74895;BME280;63447;49.446;8.666;2023-03-23T08:01:41;99810.25;;;13.61;64.25
74895;BME280;63447;49.446;8.666;2023-03-23T08:04:06;99800.31;;;13.60;64.37
74895;BME280;63447;49.446;8.666;2023-03-23T08:06:35;99810.47;;;13.72;63.85
74895;BME280;63447;49.446;8.666;2023-03-23T08:09:01;99813.88;;;13.65;63.37
74895;BME280;63447;49.446;8.666;2023-03-23T08:11:31;99812.78;;;13.70;63.41
74895;BME280;63447;49.446;8.666;2023-03-23T08:13:56;99817.47;;;13.66;64.36
74895;BME280;63447;49.446;8.666;2023-03-23T08:16:22;99837.16;;;13.61;64.98
74895;BME280;63447;49.446;8.666;2023-03-23T08:18:47;99837.09;;;13.57;64.31
74895;BME280;63447;49.446;8.666;2023-03-23T08:21:13;99835.53;;;13.59;64.80
74895;BME280;63447;49.446;8.666;2023-03-23T08:23:38;99846.72;;;13.63;64.96
74895;BME280;63447;49.446;8.666;2023-03-23T08:26:06;99841.81;;;13.56;64.25
74895;BME280;63447;49.446;8.666;2023-03-23T08:28:33;99849.03;;;13.61;64.85
74895;BME280;63447;49.446;8.666;2023-03-23T08:30:59;99831.03;;;13.51;65.34
74895;BME280;63447;49.446;8.666;2023-03-23T08:33:29;99812.06;;;13.34;65.85
74895;BME280;63447;49.446;8.666;2023-03-23T08:35:59;99838.56;;;13.51;65.92
74895;BME280;63447;49.446;8.666;2023-03-23T08:38:24;99820.81;;;13.36;66.37
74895;BME280;63447;49.446;8.666;2023-03-23T08:40:50;99850.81;;;13.69;65.82
74895;BME280;63447;49.446;8.666;2023-03-23T08:43:19;99838.41;;;13.63;65.29
74895;BME280;63447;49.446;8.666;2023-03-23T08:45:44;99823.94;;;13.54;65.28
74895;BME280;63447;49.446;8.666;2023-03-23T08:48:09;99831.78;;;13.48;66.24
74895;BME280;63447;49.446;8.666;2023-03-23T08:50:36;99841.16;;;13.63;65.68
74895;BME280;63447;49.446;8.666;2023-03-23T08:53:01;99859.25;;;13.57;66.25
74895;BME280;63447;49.446;8.666;2023-03-23T08:55:28;99856.91;;;13.59;66.82
74895;BME280;63447;49.446;8.666;2023-03-23T08:57:54;99857.00;;;13.63;66.29
74895;BME280;63447;49.446;8.666;2023-03-23T09:00:21;99842.88;;;13.48;66.08
74895;BME280;63447;49.446;8.666;2023-03-23T09:02:52;99837.53;;;13.40;67.47
74895;BME280;63447;49.446;8.666;2023-03-23T09:05:23;99851.66;;;13.54;67.25
74895;BME280;63447;49.446;8.666;2023-03-23T09:07:51;99855.91;;;13.48;67.76
74895;BME280;63447;49.446;8.666;2023-03-23T09:10:17;99865.25;;;13.59;67.10
74895;BME280;63447;49.446;8.666;2023-03-23T09:12:43;99866.56;;;13.65;66.68
74895;BME280;63447;49.446;8.666;2023-03-23T09:15:11;99867.28;;;13.62;65.82
74895;BME280;63447;49.446;8.666;2023-03-23T09:17:41;99878.28;;;13.58;66.32
74895;BME280;63447;49.446;8.666;2023-03-23T09:20:08;99875.16;;;13.60;66.72
74895;BME280;63447;49.446;8.666;2023-03-23T09:22:41;99858.09;;;13.58;65.70
74895;BME280;63447;49.446;8.666;2023-03-23T09:25:08;99881.59;;;13.64;66.20
74895;BME280;63447;49.446;8.666;2023-03-23T09:27:34;99873.78;;;13.70;65.89
74895;BME280;63447;49.446;8.666;2023-03-23T09:30:09;99880.66;;;13.76;66.63
74895;BME280;63447;49.446;8.666;2023-03-23T09:32:38;99890.94;;;13.75;65.37
74895;BME280;63447;49.446;8.666;2023-03-23T09:35:07;99885.16;;;13.84;65.15
74895;BME280;63447;49.446;8.666;2023-03-23T09:37:39;99885.44;;;13.79;64.97
74895;BME280;63447;49.446;8.666;2023-03-23T09:40:13;99889.16;;;13.86;64.63
74895;BME280;63447;49.446;8.666;2023-03-23T09:51:04;99850.50;;;13.55;64.96
74895;BME280;63447;49.446;8.666;2023-03-23T09:53:42;99898.28;;;13.87;65.31
74895;BME280;63447;49.446;8.666;2023-03-23T09:56:13;99888.81;;;13.88;64.65
74895;BME280;63447;49.446;8.666;2023-03-23T09:58:53;99873.47;;;13.94;64.67
74895;BME280;63447;49.446;8.666;2023-03-23T10:01:28;99896.47;;;13.95;65.15
74895;BME280;63447;49.446;8.666;2023-03-23T10:04:13;99890.16;;;14.17;65.05
74895;BME280;63447;49.446;8.666;2023-03-23T10:06:41;99882.72;;;14.21;63.78
74895;BME280;63447;49.446;8.666;2023-03-23T10:09:15;99882.88;;;14.51;62.71
74895;BME280;63447;49.446;8.666;2023-03-23T10:12:22;99880.41;;;14.69;62.25
74895;BME280;63447;49.446;8.666;2023-03-23T10:22:12;99874.91;;;14.72;61.73
74895;BME280;63447;49.446;8.666;2023-03-23T10:24:50;99866.31;;;14.58;61.22
74895;BME280;63447;49.446;8.666;2023-03-23T10:27:24;99862.66;;;14.50;61.46
74895;BME280;63447;49.446;8.666;2023-03-23T10:32:52;99856.53;;;14.41;62.59
74895;BME280;63447;49.446;8.666;2023-03-23T10:35:34;99852.41;;;14.54;62.34
74895;BME280;63447;49.446;8.666;2023-03-23T10:38:05;99858.94;;;14.66;62.05
74895;BME280;63447;49.446;8.666;2023-03-23T10:40:31;99857.31;;;14.65;62.49
74895;BME280;63447;49.446;8.666;2023-03-23T10:43:00;99842.38;;;14.73;62.39
74895;BME280;63447;49.446;8.666;2023-03-23T10:45:30;99857.91;;;14.51;62.50
74895;BME280;63447;49.446;8.666;2023-03-23T10:48:19;99856.28;;;14.73;62.73
74895;BME280;63447;49.446;8.666;2023-03-23T10:50:50;99859.06;;;14.50;62.47
74895;BME280;63447;49.446;8.666;2023-03-23T10:53:31;99862.13;;;14.68;62.90
74895;BME280;63447;49.446;8.666;2023-03-23T10:55:58;99846.81;;;14.77;63.18
74895;BME280;63447;49.446;8.666;2023-03-23T10:58:35;99881.25;;;14.73;62.82
74895;BME280;63447;49.446;8.666;2023-03-23T11:01:02;99877.91;;;14.86;62.96
74895;BME280;63447;49.446;8.666;2023-03-23T11:03:42;99880.84;;;14.97;62.27
74895;BME280;63447;49.446;8.666;2023-03-23T11:06:20;99863.13;;;14.79;63.09
74895;BME280;63447;49.446;8.666;2023-03-23T11:08:52;99881.63;;;14.71;64.44
74895;BME280;63447;49.446;8.666;2023-03-23T11:11:32;99881.25;;;14.73;62.96
74895;BME280;63447;49.446;8.666;2023-03-23T11:16:51;99886.91;;;14.53;64.74
74895;BME280;63447;49.446;8.666;2023-03-23T11:19:32;99874.88;;;14.26;65.71
74895;BME280;63447;49.446;8.666;2023-03-23T11:24:31;99896.81;;;14.12;66.88
74895;BME280;63447;49.446;8.666;2023-03-23T11:27:00;99909.91;;;14.35;67.09
74895;BME280;63447;49.446;8.666;2023-03-23T11:29:32;99916.50;;;14.46;66.87
74895;BME280;63447;49.446;8.666;2023-03-23T11:34:32;99917.38;;;14.50;65.94
74895;BME280;63447;49.446;8.666;2023-03-23T11:37:03;99882.22;;;14.38;66.19
74895;BME280;63447;49.446;8.666;2023-03-23T11:39:35;99892.63;;;14.41;66.11
74895;BME280;63447;49.446;8.666;2023-03-23T11:42:22;99902.25;;;14.47;65.70
74895;BME280;63447;49.446;8.666;2023-03-23T11:44:53;99902.81;;;14.37;65.56
74895;BME280;63447;49.446;8.666;2023-03-23T11:52:41;99889.50;;;14.23;66.63
74895;BME280;63447;49.446;8.666;2023-03-23T11:55:22;99894.22;;;14.00;67.57
74895;BME280;63447;49.446;8.666;2023-03-23T11:57:53;99870.09;;;14.04;67.49
74895;BME280;63447;49.446;8.666;2023-03-23T12:00:23;99874.97;;;14.11;67.11
74895;BME280;63447;49.446;8.666;2023-03-23T12:03:00;99887.03;;;14.18;66.95
74895;BME280;63447;49.446;8.666;2023-03-23T12:13:56;99887.63;;;13.89;68.30
74895;BME280;63447;49.446;8.666;2023-03-23T12:43:28;99853.63;;;13.92;69.71
74895;BME280;63447;49.446;8.666;2023-03-23T12:49:06;99868.72;;;13.95;68.74
74895;BME280;63447;49.446;8.666;2023-03-23T13:00:02;99839.09;;;13.99;67.81
74895;BME280;63447;49.446;8.666;2023-03-23T13:02:51;99834.22;;;13.92;67.00
74895;BME280;63447;49.446;8.666;2023-03-23T13:07:52;99797.38;;;14.14;66.98
74895;BME280;63447;49.446;8.666;2023-03-23T13:10:24;99816.34;;;14.35;66.38
74895;BME280;63447;49.446;8.666;2023-03-23T13:12:53;99802.16;;;14.40;65.91
74895;BME280;63447;49.446;8.666;2023-03-23T13:15:32;99792.44;;;14.27;66.00
74895;BME280;63447;49.446;8.666;2023-03-23T13:18:13;99820.06;;;14.20;66.25
74895;BME280;63447;49.446;8.666;2023-03-23T13:20:56;99811.31;;;14.18;66.05
74895;BME280;63447;49.446;8.666;2023-03-23T13:23:44;99810.00;;;14.12;66.48
74895;BME280;63447;49.446;8.666;2023-03-23T13:26:13;99810.94;;;14.19;65.97
74895;BME280;63447;49.446;8.666;2023-03-23T13:29:00;99819.44;;;14.30;65.09
74895;BME280;63447;49.446;8.666;2023-03-23T13:31:30;99811.22;;;14.14;65.85
74895;BME280;63447;49.446;8.666;2023-03-23T13:39:29;99808.41;;;14.11;65.63
74895;BME280;63447;49.446;8.666;2023-03-23T13:47:25;99817.06;;;14.29;64.52
74895;BME280;63447;49.446;8.666;2023-03-23T13:50:00;99807.78;;;13.98;65.75
74895;BME280;63447;49.446;8.666;2023-03-23T14:02:51;99813.19;;;13.91;65.56
74895;BME280;63447;49.446;8.666;2023-03-23T14:08:01;99812.16;;;13.99;65.60
74895;BME280;63447;49.446;8.666;2023-03-23T14:10:38;99812.31;;;13.87;65.43
74895;BME280;63447;49.446;8.666;2023-03-23T14:13:11;99798.53;;;13.90;65.43
74895;BME280;63447;49.446;8.666;2023-03-23T14:18:35;99813.66;;;13.74;67.44
74895;BME280;63447;49.446;8.666;2023-03-23T14:21:17;99799.28;;;13.68;67.74
74895;BME280;63447;49.446;8.666;2023-03-23T14:23:42;99793.69;;;13.65;67.89
74895;BME280;63447;49.446;8.666;2023-03-23T14:26:17;99800.47;;;13.67;68.60
74895;BME280;63447;49.446;8.666;2023-03-23T14:28:44;99807.69;;;13.72;68.52
74895;BME280;63447;49.446;8.666;2023-03-23T14:31:20;99810.31;;;13.65;68.81
74895;BME280;63447;49.446;8.666;2023-03-23T14:33:49;99826.28;;;13.71;68.78
74895;BME280;63447;49.446;8.666;2023-03-23T14:36:30;99826.88;;;13.61;69.12
74895;BME280;63447;49.446;8.666;2023-03-23T14:39:07;99816.94;;;13.60;70.08
74895;BME280;63447;49.446;8.666;2023-03-23T14:41:40;99825.09;;;13.53;70.43
74895;BME280;63447;49.446;8.666;2023-03-23T14:44:08;99784.28;;;13.31;70.18
74895;BME280;63447;49.446;8.666;2023-03-23T14:46:38;99798.72;;;13.40;70.51
74895;BME280;63447;49.446;8.666;2023-03-23T14:49:05;99823.38;;;13.45;71.72
74895;BME280;63447;49.446;8.666;2023-03-23T14:51:33;99821.41;;;13.45;71.21
74895;BME280;63447;49.446;8.666;2023-03-23T14:54:01;99811.56;;;13.48;71.64
74895;BME280;63447;49.446;8.666;2023-03-23T14:56:36;99805.59;;;13.46;70.43
74895;BME280;63447;49.446;8.666;2023-03-23T14:59:05;99813.97;;;13.49;70.46
74895;BME280;63447;49.446;8.666;2023-03-23T15:01:33;99802.09;;;13.49;70.35
74895;BME280;63447;49.446;8.666;2023-03-23T15:04:04;99805.72;;;13.53;71.18
74895;BME280;63447;49.446;8.666;2023-03-23T15:06:31;99802.22;;;13.56;71.45
74895;BME280;63447;49.446;8.666;2023-03-23T15:09:05;99774.66;;;13.44;71.07
74895;BME280;63447;49.446;8.666;2023-03-23T15:11:35;99791.63;;;13.62;69.55
74895;BME280;63447;49.446;8.666;2023-03-23T15:14:23;99793.13;;;13.78;69.40
74895;BME280;63447;49.446;8.666;2023-03-23T15:16:51;99797.94;;;13.81;69.38
74895;BME280;63447;49.446;8.666;2023-03-23T15:21:51;99798.81;;;13.85;68.56
74895;BME280;63447;49.446;8.666;2023-03-23T15:24:27;99794.88;;;13.86;68.65
74895;BME280;63447;49.446;8.666;2023-03-23T15:27:24;99803.78;;;13.96;68.49
74895;BME280;63447;49.446;8.666;2023-03-23T15:29:53;99805.44;;;14.00;67.87